MGN weather

Baracoa Airport
Magangué, Bolívar Department, Colombia

Public forecast

Using degrees Celsius for public forecast. Weather courtesy of forecast.io.

METAR (pilot weather report)

Report is more than 6 hours old.

Closest report is Las Brujas Airport, 26.2 nm (48.5 km) W. Retrieved 2019/07/02 14:00 UTC (14 days ago):

SKCZ 021400Z 08003KT 040V110 9999 FEW020 SCT100 27/25 A2990

TAF (pilot weather forecast)

Forecast is more than 12 hours old.

Closest forecast is Rafael Nuñez International Airport, 79.9 nm (148.0 km) NNW. Retrieved 2019/07/15 00:50 UTC (1 day ago):

TAF SKCG 152230Z 1600/1624 03006KT 9999 FEW015 SCT080 TEMPO 1600/1602 TS SCT015CB SCT070 PROB40 TEMPO 1609/1612 6000 VCFG SCT010 BECMG 1607/1609 VRB02KT TX33/1618Z TN25/1611Z